sensor_id;sensor_type;location;lat;lon;timestamp;pressure;altitude;pressure_sealevel;temperature;humidity
80542;BME280;69870;51.460;8.842;2023-07-13T00:01:25;98380.00;;;16.42;67.48
80542;BME280;69870;51.460;8.842;2023-07-13T00:03:52;98367.84;;;16.39;68.06
80542;BME280;69870;51.460;8.842;2023-07-13T00:06:18;98376.06;;;16.36;67.87
80542;BME280;69870;51.460;8.842;2023-07-13T00:08:46;98380.75;;;16.32;68.06
80542;BME280;69870;51.460;8.842;2023-07-13T00:11:16;98378.03;;;16.28;68.01
80542;BME280;69870;51.460;8.842;2023-07-13T00:13:43;98384.28;;;16.25;67.82
80542;BME280;69870;51.460;8.842;2023-07-13T00:16:11;98386.63;;;16.23;67.88
80542;BME280;69870;51.460;8.842;2023-07-13T00:18:39;98376.03;;;16.18;69.04
80542;BME280;69870;51.460;8.842;2023-07-13T00:21:05;98380.34;;;16.15;68.45
80542;BME280;69870;51.460;8.842;2023-07-13T00:23:32;98367.41;;;16.12;68.31
80542;BME280;69870;51.460;8.842;2023-07-13T00:26:00;98379.16;;;16.09;68.80
80542;BME280;69870;51.460;8.842;2023-07-13T00:28:28;98382.28;;;16.08;68.79
80542;BME280;69870;51.460;8.842;2023-07-13T00:30:55;98386.19;;;16.07;69.24
80542;BME280;69870;51.460;8.842;2023-07-13T00:33:22;98385.00;;;16.04;69.15
80542;BME280;69870;51.460;8.842;2023-07-13T00:35:50;98379.53;;;16.04;69.03
80542;BME280;69870;51.460;8.842;2023-07-13T00:38:16;98374.44;;;16.03;69.81
80542;BME280;69870;51.460;8.842;2023-07-13T00:40:43;98371.69;;;15.99;69.22
80542;BME280;69870;51.460;8.842;2023-07-13T00:43:12;98369.31;;;15.98;69.34
80542;BME280;69870;51.460;8.842;2023-07-13T00:48:49;98368.13;;;15.88;69.79
80542;BME280;69870;51.460;8.842;2023-07-13T00:51:19;98359.47;;;15.83;70.19
80542;BME280;69870;51.460;8.842;2023-07-13T00:53:47;98359.06;;;15.74;69.97
80542;BME280;69870;51.460;8.842;2023-07-13T00:56:14;98358.28;;;15.70;70.43
80542;BME280;69870;51.460;8.842;2023-07-13T00:58:41;98359.81;;;15.67;70.95
80542;BME280;69870;51.460;8.842;2023-07-13T01:01:07;98362.16;;;15.65;70.04
80542;BME280;69870;51.460;8.842;2023-07-13T01:03:34;98366.84;;;15.61;70.42
80542;BME280;69870;51.460;8.842;2023-07-13T01:06:02;98364.50;;;15.60;70.36
80542;BME280;69870;51.460;8.842;2023-07-13T01:08:29;98369.16;;;15.56;70.93
80542;BME280;69870;51.460;8.842;2023-07-13T01:10:57;98375.81;;;15.51;70.72
80542;BME280;69870;51.460;8.842;2023-07-13T01:13:24;98378.53;;;15.48;71.42
80542;BME280;69870;51.460;8.842;2023-07-13T01:15:52;98372.25;;;15.44;71.12
80542;BME280;69870;51.460;8.842;2023-07-13T01:18:22;98370.59;;;15.35;71.47
80542;BME280;69870;51.460;8.842;2023-07-13T01:20:53;98374.88;;;15.26;71.21
80542;BME280;69870;51.460;8.842;2023-07-13T01:23:20;98375.25;;;15.21;71.83
80542;BME280;69870;51.460;8.842;2023-07-13T01:25:47;98374.44;;;15.17;71.30
80542;BME280;69870;51.460;8.842;2023-07-13T01:28:14;98376.78;;;15.15;71.86
80542;BME280;69870;51.460;8.842;2023-07-13T01:30:42;98367.38;;;15.12;71.92
80542;BME280;69870;51.460;8.842;2023-07-13T01:33:12;98373.59;;;15.09;71.92
80542;BME280;69870;51.460;8.842;2023-07-13T01:35:40;98370.84;;;15.06;72.49
80542;BME280;69870;51.460;8.842;2023-07-13T01:38:09;98368.47;;;15.01;72.54
80542;BME280;69870;51.460;8.842;2023-07-13T01:40:37;98372.72;;;14.95;72.21
80542;BME280;69870;51.460;8.842;2023-07-13T01:43:04;98370.34;;;14.90;73.04
80542;BME280;69870;51.460;8.842;2023-07-13T01:45:31;98364.47;;;14.88;72.23
80542;BME280;69870;51.460;8.842;2023-07-13T01:47:58;98366.34;;;14.80;73.16
80542;BME280;69870;51.460;8.842;2023-07-13T01:50:25;98372.97;;;14.76;73.18
80542;BME280;69870;51.460;8.842;2023-07-13T01:52:52;98371.38;;;14.71;73.09
80542;BME280;69870;51.460;8.842;2023-07-13T01:55:21;98378.81;;;14.71;73.37
80542;BME280;69870;51.460;8.842;2023-07-13T01:57:48;98367.06;;;14.70;73.38
80542;BME280;69870;51.460;8.842;2023-07-13T02:00:15;98377.63;;;14.72;74.01
80542;BME280;69870;51.460;8.842;2023-07-13T02:02:42;98384.28;;;14.71;73.12
80542;BME280;69870;51.460;8.842;2023-07-13T02:05:10;98388.59;;;14.72;72.70
80542;BME280;69870;51.460;8.842;2023-07-13T02:07:37;98385.84;;;14.72;72.95
80542;BME280;69870;51.460;8.842;2023-07-13T02:10:04;98387.38;;;14.69;73.18
80542;BME280;69870;51.460;8.842;2023-07-13T02:12:33;98379.56;;;14.67;73.14
80542;BME280;69870;51.460;8.842;2023-07-13T02:14:59;98369.38;;;14.64;73.54
80542;BME280;69870;51.460;8.842;2023-07-13T02:17:26;98377.16;;;14.62;73.21
80542;BME280;69870;51.460;8.842;2023-07-13T02:19:53;98383.03;;;14.57;73.72
80542;BME280;69870;51.460;8.842;2023-07-13T02:22:20;98386.50;;;14.54;73.63
80542;BME280;69870;51.460;8.842;2023-07-13T02:24:47;98377.81;;;14.45;73.79
80542;BME280;69870;51.460;8.842;2023-07-13T02:27:17;98391.84;;;14.40;73.90
80542;BME280;69870;51.460;8.842;2023-07-13T02:29:45;98390.28;;;14.39;73.08
80542;BME280;69870;51.460;8.842;2023-07-13T02:32:12;98382.81;;;14.36;74.01
80542;BME280;69870;51.460;8.842;2023-07-13T02:34:40;98385.56;;;14.36;73.57
80542;BME280;69870;51.460;8.842;2023-07-13T02:37:07;98394.94;;;14.35;73.71
80542;BME280;69870;51.460;8.842;2023-07-13T02:39:34;98387.88;;;14.34;73.42
80542;BME280;69870;51.460;8.842;2023-07-13T02:42:03;98394.94;;;14.35;73.08
80542;BME280;69870;51.460;8.842;2023-07-13T02:44:29;98393.34;;;14.34;73.30
80542;BME280;69870;51.460;8.842;2023-07-13T02:46:57;98384.34;;;14.34;73.26
80542;BME280;69870;51.460;8.842;2023-07-13T02:49:24;98388.25;;;14.33;73.88
80542;BME280;69870;51.460;8.842;2023-07-13T02:51:50;98383.16;;;14.31;73.48
80542;BME280;69870;51.460;8.842;2023-07-13T02:54:17;98378.41;;;14.28;72.95
80542;BME280;69870;51.460;8.842;2023-07-13T02:56:44;98377.59;;;14.24;73.04
80542;BME280;69870;51.460;8.842;2023-07-13T02:59:10;98379.91;;;14.22;73.29
80542;BME280;69870;51.460;8.842;2023-07-13T03:01:37;98379.88;;;14.19;73.30
80542;BME280;69870;51.460;8.842;2023-07-13T03:04:05;98386.88;;;14.16;73.76
80542;BME280;69870;51.460;8.842;2023-07-13T03:06:34;98388.81;;;14.12;74.27
80542;BME280;69870;51.460;8.842;2023-07-13T03:09:01;98381.34;;;14.09;74.04
80542;BME280;69870;51.460;8.842;2023-07-13T03:11:30;98385.19;;;14.05;73.89
80542;BME280;69870;51.460;8.842;2023-07-13T03:14:12;98385.97;;;14.02;73.73
80542;BME280;69870;51.460;8.842;2023-07-13T03:16:39;98386.69;;;13.98;74.22
80542;BME280;69870;51.460;8.842;2023-07-13T03:19:08;98381.97;;;13.95;74.32
80542;BME280;69870;51.460;8.842;2023-07-13T03:21:34;98395.22;;;13.93;73.52
80542;BME280;69870;51.460;8.842;2023-07-13T03:24:01;98398.34;;;13.92;73.58
80542;BME280;69870;51.460;8.842;2023-07-13T03:26:28;98393.63;;;13.89;73.38
80542;BME280;69870;51.460;8.842;2023-07-13T03:28:55;98393.22;;;13.87;72.81
80542;BME280;69870;51.460;8.842;2023-07-13T03:31:24;98400.19;;;13.84;74.19
80542;BME280;69870;51.460;8.842;2023-07-13T03:33:51;98398.66;;;13.83;73.08
80542;BME280;69870;51.460;8.842;2023-07-13T03:36:21;98387.31;;;13.81;74.01
80542;BME280;69870;51.460;8.842;2023-07-13T03:38:51;98395.84;;;13.80;73.22
80542;BME280;69870;51.460;8.842;2023-07-13T03:41:22;98399.75;;;13.79;74.53
80542;BME280;69870;51.460;8.842;2023-07-13T03:43:51;98413.41;;;13.75;73.68
80542;BME280;69870;51.460;8.842;2023-07-13T03:46:20;98411.41;;;13.72;74.09
80542;BME280;69870;51.460;8.842;2023-07-13T03:48:47;98410.19;;;13.70;74.28
80542;BME280;69870;51.460;8.842;2023-07-13T03:51:15;98417.59;;;13.69;74.54
80542;BME280;69870;51.460;8.842;2023-07-13T03:53:45;98415.28;;;13.71;73.86
80542;BME280;69870;51.460;8.842;2023-07-13T03:56:14;98418.41;;;13.70;74.56
80542;BME280;69870;51.460;8.842;2023-07-13T03:58:43;98425.44;;;13.71;74.03
80542;BME280;69870;51.460;8.842;2023-07-13T04:01:16;98430.94;;;13.74;73.75
80542;BME280;69870;51.460;8.842;2023-07-13T04:03:43;98418.47;;;13.77;73.50
80542;BME280;69870;51.460;8.842;2023-07-13T04:06:15;98421.63;;;13.79;73.11
80542;BME280;69870;51.460;8.842;2023-07-13T04:08:48;98425.56;;;13.81;73.15
80542;BME280;69870;51.460;8.842;2023-07-13T04:11:16;98420.50;;;13.83;73.09
80542;BME280;69870;51.460;8.842;2023-07-13T04:13:43;98425.25;;;13.86;73.36
80542;BME280;69870;51.460;8.842;2023-07-13T04:16:11;98431.16;;;13.92;73.60
80542;BME280;69870;51.460;8.842;2023-07-13T04:18:37;98428.44;;;13.95;73.27
80542;BME280;69870;51.460;8.842;2023-07-13T04:21:04;98424.59;;;14.00;72.30
80542;BME280;69870;51.460;8.842;2023-07-13T04:23:30;98426.59;;;14.03;72.41
80542;BME280;69870;51.460;8.842;2023-07-13T04:25:58;98429.81;;;14.09;73.14
80542;BME280;69870;51.460;8.842;2023-07-13T04:28:25;98427.13;;;14.16;72.29
80542;BME280;69870;51.460;8.842;2023-07-13T04:30:52;98431.88;;;14.22;71.93
80542;BME280;69870;51.460;8.842;2023-07-13T04:33:19;98433.56;;;14.30;71.38
80542;BME280;69870;51.460;8.842;2023-07-13T04:35:47;98423.84;;;14.36;71.67
80542;BME280;69870;51.460;8.842;2023-07-13T04:38:14;98422.41;;;14.46;70.88
80542;BME280;69870;51.460;8.842;2023-07-13T04:40:42;98425.63;;;14.55;71.27
80542;BME280;69870;51.460;8.842;2023-07-13T04:43:10;98431.91;;;14.62;70.98
80542;BME280;69870;51.460;8.842;2023-07-13T04:45:37;98428.09;;;14.71;70.14
80542;BME280;69870;51.460;8.842;2023-07-13T04:48:04;98427.38;;;14.81;69.64
80542;BME280;69870;51.460;8.842;2023-07-13T04:50:31;98427.47;;;14.91;69.79
80542;BME280;69870;51.460;8.842;2023-07-13T04:52:57;98421.69;;;15.00;69.44
80542;BME280;69870;51.460;8.842;2023-07-13T04:55:24;98422.56;;;15.11;69.87
80542;BME280;69870;51.460;8.842;2023-07-13T04:57:51;98428.88;;;15.22;69.69
80542;BME280;69870;51.460;8.842;2023-07-13T05:00:19;98425.41;;;15.32;68.71
80542;BME280;69870;51.460;8.842;2023-07-13T05:02:45;98424.72;;;15.42;68.53
80542;BME280;69870;51.460;8.842;2023-07-13T05:05:12;98418.50;;;15.52;68.46
80542;BME280;69870;51.460;8.842;2023-07-13T05:07:39;98416.63;;;15.63;67.71
80542;BME280;69870;51.460;8.842;2023-07-13T05:10:07;98424.91;;;15.77;68.18
80542;BME280;69870;51.460;8.842;2023-07-13T05:12:34;98418.31;;;15.92;67.15
80542;BME280;69870;51.460;8.842;2023-07-13T05:15:01;98421.50;;;16.12;67.04
80542;BME280;69870;51.460;8.842;2023-07-13T05:17:29;98423.91;;;16.28;66.47
80542;BME280;69870;51.460;8.842;2023-07-13T05:19:56;98428.63;;;16.45;65.81
80542;BME280;69870;51.460;8.842;2023-07-13T05:22:22;98424.38;;;16.61;64.81
80542;BME280;69870;51.460;8.842;2023-07-13T05:24:49;98424.00;;;16.77;64.46
80542;BME280;69870;51.460;8.842;2023-07-13T05:27:15;98421.66;;;16.93;64.44
80542;BME280;69870;51.460;8.842;2023-07-13T05:29:42;98418.09;;;17.07;64.03
80542;BME280;69870;51.460;8.842;2023-07-13T05:32:09;98417.28;;;17.20;63.54
80542;BME280;69870;51.460;8.842;2023-07-13T05:34:37;98417.69;;;17.33;63.27
80542;BME280;69870;51.460;8.842;2023-07-13T05:37:04;98426.28;;;17.45;62.88
80542;BME280;69870;51.460;8.842;2023-07-13T05:39:31;98428.25;;;17.59;62.61
80542;BME280;69870;51.460;8.842;2023-07-13T05:41:57;98424.66;;;17.69;61.89
80542;BME280;69870;51.460;8.842;2023-07-13T05:44:24;98439.59;;;17.79;61.93
80542;BME280;69870;51.460;8.842;2023-07-13T05:46:50;98425.38;;;17.87;61.26
80542;BME280;69870;51.460;8.842;2023-07-13T05:49:17;98424.97;;;17.99;61.09
80542;BME280;69870;51.460;8.842;2023-07-13T05:51:44;98420.97;;;18.11;60.61
80542;BME280;69870;51.460;8.842;2023-07-13T05:54:11;98423.66;;;18.21;60.21
80542;BME280;69870;51.460;8.842;2023-07-13T05:56:37;98428.75;;;18.26;60.11
80542;BME280;69870;51.460;8.842;2023-07-13T05:59:04;98433.81;;;18.35;59.96
80542;BME280;69870;51.460;8.842;2023-07-13T06:01:31;98434.97;;;18.41;59.84
80542;BME280;69870;51.460;8.842;2023-07-13T06:03:57;98438.09;;;18.50;59.48
80542;BME280;69870;51.460;8.842;2023-07-13T06:06:24;98447.06;;;18.61;59.33
80542;BME280;69870;51.460;8.842;2023-07-13T06:08:52;98445.81;;;18.73;58.82
80542;BME280;69870;51.460;8.842;2023-07-13T06:11:20;98447.28;;;18.84;58.48
80542;BME280;69870;51.460;8.842;2023-07-13T06:13:47;98444.84;;;18.93;58.46
80542;BME280;69870;51.460;8.842;2023-07-13T06:16:14;98451.06;;;19.04;58.26
80542;BME280;69870;51.460;8.842;2023-07-13T06:18:42;98450.56;;;19.17;57.92
80542;BME280;69870;51.460;8.842;2023-07-13T06:21:10;98459.13;;;19.29;57.39
80542;BME280;69870;51.460;8.842;2023-07-13T06:23:37;98452.72;;;19.43;57.65
80542;BME280;69870;51.460;8.842;2023-07-13T06:26:06;98455.34;;;19.57;57.07
80542;BME280;69870;51.460;8.842;2023-07-13T06:28:33;98444.19;;;19.67;56.80
80542;BME280;69870;51.460;8.842;2023-07-13T06:31:00;98440.53;;;19.78;56.23
80542;BME280;69870;51.460;8.842;2023-07-13T06:33:27;98456.91;;;19.95;56.11
80542;BME280;69870;51.460;8.842;2023-07-13T06:35:54;98444.75;;;20.19;54.78
80542;BME280;69870;51.460;8.842;2023-07-13T06:38:21;98449.56;;;20.45;54.39
80542;BME280;69870;51.460;8.842;2023-07-13T06:40:47;98449.56;;;20.72;53.88
80542;BME280;69870;51.460;8.842;2023-07-13T06:43:15;98455.84;;;20.99;53.66
80542;BME280;69870;51.460;8.842;2023-07-13T06:45:44;98454.50;;;21.34;52.57
80542;BME280;69870;51.460;8.842;2023-07-13T06:48:13;98449.88;;;21.70;52.09
80542;BME280;69870;51.460;8.842;2023-07-13T06:50:39;98452.25;;;22.11;51.46
80542;BME280;69870;51.460;8.842;2023-07-13T06:53:06;98449.50;;;22.31;50.93
80542;BME280;69870;51.460;8.842;2023-07-13T06:55:32;98440.69;;;22.52;49.97
80542;BME280;69870;51.460;8.842;2023-07-13T06:57:59;98449.78;;;22.72;49.88
80542;BME280;69870;51.460;8.842;2023-07-13T07:00:27;98453.16;;;22.96;49.46
80542;BME280;69870;51.460;8.842;2023-07-13T07:02:53;98453.97;;;23.12;49.26
80542;BME280;69870;51.460;8.842;2023-07-13T07:05:20;98452.31;;;22.99;49.80
80542;BME280;69870;51.460;8.842;2023-07-13T07:07:47;98449.97;;;22.97;49.28
80542;BME280;69870;51.460;8.842;2023-07-13T07:10:14;98448.47;;;23.25;49.00
80542;BME280;69870;51.460;8.842;2023-07-13T07:12:40;98442.47;;;23.59;47.63
80542;BME280;69870;51.460;8.842;2023-07-13T07:15:08;98446.81;;;23.60;47.67
80542;BME280;69870;51.460;8.842;2023-07-13T07:17:36;98446.03;;;23.59;47.30
80542;BME280;69870;51.460;8.842;2023-07-13T07:20:03;98448.34;;;23.77;47.22
80542;BME280;69870;51.460;8.842;2023-07-13T07:22:30;98446.38;;;23.90;46.87
80542;BME280;69870;51.460;8.842;2023-07-13T07:24:57;98440.28;;;23.95;46.83
80542;BME280;69870;51.460;8.842;2023-07-13T07:27:24;98451.25;;;23.86;46.94
80542;BME280;69870;51.460;8.842;2023-07-13T07:29:51;98456.00;;;23.73;47.02
80542;BME280;69870;51.460;8.842;2023-07-13T07:32:19;98456.13;;;23.53;47.38
80542;BME280;69870;51.460;8.842;2023-07-13T07:34:47;98454.88;;;23.54;47.49
80542;BME280;69870;51.460;8.842;2023-07-13T07:37:14;98449.53;;;23.31;47.86
80542;BME280;69870;51.460;8.842;2023-07-13T07:39:42;98450.31;;;23.48;47.63
80542;BME280;69870;51.460;8.842;2023-07-13T07:42:09;98448.53;;;23.70;47.23
80542;BME280;69870;51.460;8.842;2023-07-13T07:44:35;98452.38;;;23.88;46.48
80542;BME280;69870;51.460;8.842;2023-07-13T07:47:02;98452.75;;;23.74;46.63
80542;BME280;69870;51.460;8.842;2023-07-13T07:49:29;98455.84;;;23.64;46.85
80542;BME280;69870;51.460;8.842;2023-07-13T07:51:57;98450.97;;;23.68;46.91
80542;BME280;69870;51.460;8.842;2023-07-13T07:54:23;98449.28;;;23.99;46.54
80542;BME280;69870;51.460;8.842;2023-07-13T07:56:50;98457.03;;;24.20;46.47
80542;BME280;69870;51.460;8.842;2023-07-13T07:59:16;98461.53;;;24.30;46.31
80542;BME280;69870;51.460;8.842;2023-07-13T08:01:43;98458.66;;;24.46;46.18
80542;BME280;69870;51.460;8.842;2023-07-13T08:04:11;98457.97;;;24.42;45.59
80542;BME280;69870;51.460;8.842;2023-07-13T08:06:38;98469.28;;;24.77;45.20
80542;BME280;69870;51.460;8.842;2023-07-13T08:09:05;98463.50;;;24.96;44.63
80542;BME280;69870;51.460;8.842;2023-07-13T08:11:33;98459.69;;;25.03;44.43
80542;BME280;69870;51.460;8.842;2023-07-13T08:14:00;98455.63;;;25.29;44.30
80542;BME280;69870;51.460;8.842;2023-07-13T08:16:27;98474.88;;;25.61;43.59
80542;BME280;69870;51.460;8.842;2023-07-13T08:18:53;98475.38;;;25.81;42.92
80542;BME280;69870;51.460;8.842;2023-07-13T08:21:20;98476.66;;;25.89;42.32
80542;BME280;69870;51.460;8.842;2023-07-13T08:23:47;98477.16;;;26.31;41.64
80542;BME280;69870;51.460;8.842;2023-07-13T08:26:15;98472.72;;;26.64;41.13
80542;BME280;69870;51.460;8.842;2023-07-13T08:28:41;98476.22;;;26.56;41.74
80542;BME280;69870;51.460;8.842;2023-07-13T08:31:09;98463.41;;;26.67;41.31
80542;BME280;69870;51.460;8.842;2023-07-13T08:33:36;98471.50;;;27.05;41.43
80542;BME280;69870;51.460;8.842;2023-07-13T08:36:04;98461.47;;;27.26;40.35
80542;BME280;69870;51.460;8.842;2023-07-13T08:38:30;98465.97;;;27.23;40.16
80542;BME280;69870;51.460;8.842;2023-07-13T08:40:57;98470.31;;;27.15;40.56
80542;BME280;69870;51.460;8.842;2023-07-13T08:43:28;98473.69;;;27.10;40.51
80542;BME280;69870;51.460;8.842;2023-07-13T08:46:14;98466.50;;;26.91;39.93
80542;BME280;69870;51.460;8.842;2023-07-13T08:48:45;98475.66;;;27.01;40.67
80542;BME280;69870;51.460;8.842;2023-07-13T08:51:22;98471.84;;;27.16;40.00
80542;BME280;69870;51.460;8.842;2023-07-13T08:53:54;98462.63;;;27.46;40.09
80542;BME280;69870;51.460;8.842;2023-07-13T08:56:26;98464.53;;;27.95;39.30
80542;BME280;69870;51.460;8.842;2023-07-13T08:58:57;98467.66;;;28.15;38.53
80542;BME280;69870;51.460;8.842;2023-07-13T09:01:29;98462.69;;;28.01;38.37
80542;BME280;69870;51.460;8.842;2023-07-13T09:04:03;98468.53;;;27.94;39.20
80542;BME280;69870;51.460;8.842;2023-07-13T09:06:42;98462.06;;;28.15;39.06
80542;BME280;69870;51.460;8.842;2023-07-13T09:09:19;98464.34;;;28.35;38.44
80542;BME280;69870;51.460;8.842;2023-07-13T09:11:56;98467.63;;;28.33;38.73
80542;BME280;69870;51.460;8.842;2023-07-13T09:14:35;98463.72;;;28.58;38.36
80542;BME280;69870;51.460;8.842;2023-07-13T09:17:04;98454.09;;;28.82;38.17
80542;BME280;69870;51.460;8.842;2023-07-13T09:19:33;98475.31;;;29.07;37.76
80542;BME280;69870;51.460;8.842;2023-07-13T09:22:02;98473.06;;;28.87;37.31
80542;BME280;69870;51.460;8.842;2023-07-13T09:24:37;98471.34;;;28.39;38.22
80542;BME280;69870;51.460;8.842;2023-07-13T09:27:11;98457.84;;;28.10;37.92
80542;BME280;69870;51.460;8.842;2023-07-13T09:29:46;98470.41;;;27.79;39.17
80542;BME280;69870;51.460;8.842;2023-07-13T09:32:17;98461.06;;;27.36;39.44
80542;BME280;69870;51.460;8.842;2023-07-13T09:34:50;98474.31;;;27.14;39.71
80542;BME280;69870;51.460;8.842;2023-07-13T09:37:17;98474.69;;;26.85;40.07
80542;BME280;69870;51.460;8.842;2023-07-13T09:39:44;98480.38;;;26.51;40.68
80542;BME280;69870;51.460;8.842;2023-07-13T09:42:15;98474.19;;;26.78;40.46
80542;BME280;69870;51.460;8.842;2023-07-13T09:44:52;98483.97;;;27.13;40.27
80542;BME280;69870;51.460;8.842;2023-07-13T09:47:20;98471.38;;;27.67;39.27
80542;BME280;69870;51.460;8.842;2023-07-13T09:49:54;98468.53;;;27.76;39.32
80542;BME280;69870;51.460;8.842;2023-07-13T09:52:21;98479.28;;;27.95;39.22
80542;BME280;69870;51.460;8.842;2023-07-13T09:54:51;98470.13;;;27.77;39.46
80542;BME280;69870;51.460;8.842;2023-07-13T09:57:23;98472.44;;;27.51;39.56
80542;BME280;69870;51.460;8.842;2023-07-13T09:59:53;98488.63;;;27.25;39.75
80542;BME280;69870;51.460;8.842;2023-07-13T10:02:27;98485.72;;;27.38;38.74
80542;BME280;69870;51.460;8.842;2023-07-13T10:05:00;98484.91;;;26.58;40.40
80542;BME280;69870;51.460;8.842;2023-07-13T10:07:29;98493.00;;;26.65;40.29
80542;BME280;69870;51.460;8.842;2023-07-13T10:09:56;98489.38;;;26.77;39.86
80542;BME280;69870;51.460;8.842;2023-07-13T10:12:24;98500.00;;;26.91;39.80
80542;BME280;69870;51.460;8.842;2023-07-13T10:14:54;98496.31;;;27.03;39.57
80542;BME280;69870;51.460;8.842;2023-07-13T10:17:27;98497.19;;;26.82;39.66
80542;BME280;69870;51.460;8.842;2023-07-13T10:19:58;98509.50;;;26.72;39.92
80542;BME280;69870;51.460;8.842;2023-07-13T10:22:29;98496.25;;;26.85;39.91
80542;BME280;69870;51.460;8.842;2023-07-13T10:24:59;98501.31;;;27.08;39.05
80542;BME280;69870;51.460;8.842;2023-07-13T10:27:31;98494.50;;;27.85;37.82
80542;BME280;69870;51.460;8.842;2023-07-13T10:30:06;98503.31;;;28.56;36.54
80542;BME280;69870;51.460;8.842;2023-07-13T10:32:36;98495.22;;;28.76;36.60
80542;BME280;69870;51.460;8.842;2023-07-13T10:35:03;98500.63;;;29.31;35.95
80542;BME280;69870;51.460;8.842;2023-07-13T10:37:43;98500.28;;;29.38;36.03
80542;BME280;69870;51.460;8.842;2023-07-13T10:40:13;98497.88;;;29.45;36.59
80542;BME280;69870;51.460;8.842;2023-07-13T10:42:44;98498.84;;;29.00;36.82
80542;BME280;69870;51.460;8.842;2023-07-13T10:45:16;98501.50;;;28.44;37.55
80542;BME280;69870;51.460;8.842;2023-07-13T10:47:45;98501.53;;;28.08;37.92
80542;BME280;69870;51.460;8.842;2023-07-13T10:50:17;98512.50;;;27.66;38.60
80542;BME280;69870;51.460;8.842;2023-07-13T10:52:46;98512.84;;;27.19;39.24
80542;BME280;69870;51.460;8.842;2023-07-13T10:55:33;98499.16;;;27.12;39.06
80542;BME280;69870;51.460;8.842;2023-07-13T10:58:02;98505.66;;;27.09;39.56
80542;BME280;69870;51.460;8.842;2023-07-13T11:00:32;98512.81;;;27.10;39.38
80542;BME280;69870;51.460;8.842;2023-07-13T11:03:00;98500.22;;;27.06;39.50
80542;BME280;69870;51.460;8.842;2023-07-13T11:05:30;98511.66;;;27.38;39.11
80542;BME280;69870;51.460;8.842;2023-07-13T11:08:04;98503.09;;;28.09;37.82
80542;BME280;69870;51.460;8.842;2023-07-13T11:10:50;98505.56;;;28.07;38.03
80542;BME280;69870;51.460;8.842;2023-07-13T11:13:38;98521.03;;;27.44;38.86
80542;BME280;69870;51.460;8.842;2023-07-13T11:16:35;98522.50;;;26.66;40.25
80542;BME280;69870;51.460;8.842;2023-07-13T11:19:27;98526.38;;;26.03;40.79
80542;BME280;69870;51.460;8.842;2023-07-13T11:22:10;98521.00;;;25.75;41.41
80542;BME280;69870;51.460;8.842;2023-07-13T11:24:59;98519.66;;;25.67;42.04
80542;BME280;69870;51.460;8.842;2023-07-13T11:27:39;98511.91;;;25.62;42.29
80542;BME280;69870;51.460;8.842;2023-07-13T11:30:13;98500.28;;;25.97;41.78
80542;BME280;69870;51.460;8.842;2023-07-13T11:32:50;98503.25;;;26.15;41.13
80542;BME280;69870;51.460;8.842;2023-07-13T11:35:21;98505.00;;;26.22;40.96
80542;BME280;69870;51.460;8.842;2023-07-13T11:37:49;98509.41;;;26.10;41.52
80542;BME280;69870;51.460;8.842;2023-07-13T11:40:16;98507.94;;;25.84;41.54
80542;BME280;69870;51.460;8.842;2023-07-13T11:42:42;98503.06;;;25.63;41.56
80542;BME280;69870;51.460;8.842;2023-07-13T11:45:19;98507.44;;;25.52;42.69
80542;BME280;69870;51.460;8.842;2023-07-13T11:47:49;98508.91;;;25.31;42.72
80542;BME280;69870;51.460;8.842;2023-07-13T11:50:20;98509.06;;;25.74;42.26
80542;BME280;69870;51.460;8.842;2023-07-13T11:52:48;98502.91;;;26.13;41.64
80542;BME280;69870;51.460;8.842;2023-07-13T11:55:17;98502.06;;;26.26;41.27
80542;BME280;69870;51.460;8.842;2023-07-13T11:57:45;98503.28;;;26.25;41.13
80542;BME280;69870;51.460;8.842;2023-07-13T12:00:15;98512.09;;;26.01;40.77
80542;BME280;69870;51.460;8.842;2023-07-13T12:02:45;98503.63;;;25.71;40.39
80542;BME280;69870;51.460;8.842;2023-07-13T12:05:15;98505.53;;;25.36;41.46
80542;BME280;69870;51.460;8.842;2023-07-13T12:07:43;98510.91;;;25.18;41.54
80542;BME280;69870;51.460;8.842;2023-07-13T12:10:18;98509.81;;;25.28;40.80
80542;BME280;69870;51.460;8.842;2023-07-13T12:12:47;98510.81;;;25.21;41.56
80542;BME280;69870;51.460;8.842;2023-07-13T12:15:14;98508.47;;;25.20;41.17
80542;BME280;69870;51.460;8.842;2023-07-13T12:17:41;98515.28;;;25.06;41.42
80542;BME280;69870;51.460;8.842;2023-07-13T12:20:20;98521.16;;;24.83;42.03
80542;BME280;69870;51.460;8.842;2023-07-13T12:22:48;98515.09;;;24.59;42.30
80542;BME280;69870;51.460;8.842;2023-07-13T12:25:15;98516.19;;;24.49;43.11
80542;BME280;69870;51.460;8.842;2023-07-13T12:27:46;98517.47;;;24.32;43.31
80542;BME280;69870;51.460;8.842;2023-07-13T12:30:24;98521.00;;;24.20;43.44
80542;BME280;69870;51.460;8.842;2023-07-13T12:32:59;98519.13;;;24.30;43.85
80542;BME280;69870;51.460;8.842;2023-07-13T12:35:29;98509.47;;;24.34;43.75
80542;BME280;69870;51.460;8.842;2023-07-13T12:37:59;98519.28;;;24.51;43.62
80542;BME280;69870;51.460;8.842;2023-07-13T12:40:28;98511.88;;;24.61;43.43
80542;BME280;69870;51.460;8.842;2023-07-13T12:42:58;98524.25;;;24.72;43.63
80542;BME280;69870;51.460;8.842;2023-07-13T12:45:26;98525.72;;;24.77;43.70
80542;BME280;69870;51.460;8.842;2023-07-13T12:47:56;98542.31;;;24.81;43.49
80542;BME280;69870;51.460;8.842;2023-07-13T12:50:33;98523.84;;;24.87;43.14
80542;BME280;69870;51.460;8.842;2023-07-13T12:53:02;98532.53;;;24.89;43.13
80542;BME280;69870;51.460;8.842;2023-07-13T12:55:30;98528.75;;;24.95;42.92
80542;BME280;69870;51.460;8.842;2023-07-13T12:57:58;98524.31;;;24.98;43.18
80542;BME280;69870;51.460;8.842;2023-07-13T13:00:28;98525.41;;;25.13;42.77
80542;BME280;69870;51.460;8.842;2023-07-13T13:03:00;98521.59;;;25.32;42.51
80542;BME280;69870;51.460;8.842;2023-07-13T13:05:30;98528.28;;;25.47;42.03
80542;BME280;69870;51.460;8.842;2023-07-13T13:07:58;98529.31;;;25.28;41.91
80542;BME280;69870;51.460;8.842;2023-07-13T13:10:24;98519.41;;;25.02;42.74
80542;BME280;69870;51.460;8.842;2023-07-13T13:12:51;98526.53;;;24.90;43.01